Bost/Laskar, Afghanistan
Current Conditions -  °F | °C
As of 3:55 PM on Monday 24 Nov 2014 (Local Time) from KQHN Reporting Station
Few Clouds Few Clouds  
Wind Chill: 73°   Ceiling: Unl
Heat Index: 73°   Visibility: 6mi
Dew Point: 16°   Wind: 5mph
Humidity: 11%   Direction: NA
Pressure: 30.03"   Gusts: NA
Location:  31.55°N, 64.37°E
Report Text: KQHN 241155Z VRB04KT 9999 FEW120 FEW200 23/M09 A3003 RMK SLP113 Q1017 DA4944
Loading
Personal Weather Stations






























Interactive Weather Map New forecast layout! Learn more

10-Day Weather Forecast

Advertisements
Track Severe Weather on mobile